sensor_id;sensor_type;location;lat;lon;timestamp;temperature;humidity
29295;DHT22;16305;48.566;8.846;2023-01-26T00:01:07;-0.60;99.90
29295;DHT22;16305;48.566;8.846;2023-01-26T00:03:33;-0.60;99.90
29295;DHT22;16305;48.566;8.846;2023-01-26T00:06:05;-0.60;99.90
29295;DHT22;16305;48.566;8.846;2023-01-26T00:08:35;-0.50;99.90
29295;DHT22;16305;48.566;8.846;2023-01-26T00:11:06;-0.50;99.90
29295;DHT22;16305;48.566;8.846;2023-01-26T00:13:32;-0.50;99.90
29295;DHT22;16305;48.566;8.846;2023-01-26T00:15:58;-0.30;99.90
29295;DHT22;16305;48.566;8.846;2023-01-26T00:18:24;0.00;99.90
29295;DHT22;16305;48.566;8.846;2023-01-26T00:20:56;-0.10;99.90
29295;DHT22;16305;48.566;8.846;2023-01-26T00:23:22;-0.20;99.90
29295;DHT22;16305;48.566;8.846;2023-01-26T00:25:48;-0.30;99.90
29295;DHT22;16305;48.566;8.846;2023-01-26T00:28:13;-0.40;99.90
29295;DHT22;16305;48.566;8.846;2023-01-26T00:30:39;-0.50;99.90
29295;DHT22;16305;48.566;8.846;2023-01-26T00:33:04;-0.60;99.90
29295;DHT22;16305;48.566;8.846;2023-01-26T00:35:30;-0.50;99.90
29295;DHT22;16305;48.566;8.846;2023-01-26T00:37:55;-0.50;99.90
29295;DHT22;16305;48.566;8.846;2023-01-26T00:40:21;-0.50;99.90
29295;DHT22;16305;48.566;8.846;2023-01-26T00:42:46;-0.60;99.90
29295;DHT22;16305;48.566;8.846;2023-01-26T00:45:12;-0.70;99.90
29295;DHT22;16305;48.566;8.846;2023-01-26T00:47:37;-0.50;99.90
29295;DHT22;16305;48.566;8.846;2023-01-26T00:50:03;-0.30;99.90
29295;DHT22;16305;48.566;8.846;2023-01-26T00:52:29;-0.30;99.90
29295;DHT22;16305;48.566;8.846;2023-01-26T00:54:54;-0.20;99.90
29295;DHT22;16305;48.566;8.846;2023-01-26T00:57:20;-0.20;99.90
29295;DHT22;16305;48.566;8.846;2023-01-26T00:59:45;-0.20;99.90
29295;DHT22;16305;48.566;8.846;2023-01-26T01:02:11;-0.10;99.90
29295;DHT22;16305;48.566;8.846;2023-01-26T01:04:36;-0.10;99.90
29295;DHT22;16305;48.566;8.846;2023-01-26T01:07:02;-0.10;99.90
29295;DHT22;16305;48.566;8.846;2023-01-26T01:09:27;0.10;99.90
29295;DHT22;16305;48.566;8.846;2023-01-26T01:11:53;0.10;99.90
29295;DHT22;16305;48.566;8.846;2023-01-26T01:14:18;0.10;99.90
29295;DHT22;16305;48.566;8.846;2023-01-26T01:16:44;0.10;99.90
29295;DHT22;16305;48.566;8.846;2023-01-26T01:19:13;0.10;99.90
29295;DHT22;16305;48.566;8.846;2023-01-26T01:21:39;0.10;99.90
29295;DHT22;16305;48.566;8.846;2023-01-26T01:24:05;0.10;99.90
29295;DHT22;16305;48.566;8.846;2023-01-26T01:26:31;0.10;99.90
29295;DHT22;16305;48.566;8.846;2023-01-26T01:28:56;0.10;99.90
29295;DHT22;16305;48.566;8.846;2023-01-26T01:31:23;0.20;99.90
29295;DHT22;16305;48.566;8.846;2023-01-26T01:33:54;0.20;99.90
29295;DHT22;16305;48.566;8.846;2023-01-26T01:36:20;0.30;99.90
29295;DHT22;16305;48.566;8.846;2023-01-26T01:38:46;0.20;99.90
29295;DHT22;16305;48.566;8.846;2023-01-26T01:41:13;0.30;99.90
29295;DHT22;16305;48.566;8.846;2023-01-26T01:43:39;0.30;99.90
29295;DHT22;16305;48.566;8.846;2023-01-26T01:51:27;0.10;99.90
29295;DHT22;16305;48.566;8.846;2023-01-26T01:53:56;0.00;99.90
29295;DHT22;16305;48.566;8.846;2023-01-26T01:56:24;0.00;99.90
29295;DHT22;16305;48.566;8.846;2023-01-26T01:58:52;0.00;99.90
29295;DHT22;16305;48.566;8.846;2023-01-26T02:01:19;-0.10;99.90
29295;DHT22;16305;48.566;8.846;2023-01-26T02:03:46;-0.30;99.90
29295;DHT22;16305;48.566;8.846;2023-01-26T02:06:15;-0.20;99.90
29295;DHT22;16305;48.566;8.846;2023-01-26T02:08:54;-0.30;99.90
29295;DHT22;16305;48.566;8.846;2023-01-26T02:13:49;-0.40;99.90
29295;DHT22;16305;48.566;8.846;2023-01-26T02:16:16;-0.40;99.90
29295;DHT22;16305;48.566;8.846;2023-01-26T02:18:43;-0.30;99.90
29295;DHT22;16305;48.566;8.846;2023-01-26T02:21:13;-0.10;99.90
29295;DHT22;16305;48.566;8.846;2023-01-26T02:23:42;-0.30;99.90
29295;DHT22;16305;48.566;8.846;2023-01-26T02:26:15;-0.40;99.90
29295;DHT22;16305;48.566;8.846;2023-01-26T02:28:43;-0.20;99.90
29295;DHT22;16305;48.566;8.846;2023-01-26T02:31:10;-0.20;99.90
29295;DHT22;16305;48.566;8.846;2023-01-26T02:33:37;-0.10;99.90
29295;DHT22;16305;48.566;8.846;2023-01-26T02:36:03;-0.10;99.90
29295;DHT22;16305;48.566;8.846;2023-01-26T02:38:40;-0.20;99.90
29295;DHT22;16305;48.566;8.846;2023-01-26T02:41:09;-0.20;99.90
29295;DHT22;16305;48.566;8.846;2023-01-26T02:43:36;-0.20;99.90
29295;DHT22;16305;48.566;8.846;2023-01-26T02:46:02;-0.30;99.90
29295;DHT22;16305;48.566;8.846;2023-01-26T02:48:27;-0.40;99.90
29295;DHT22;16305;48.566;8.846;2023-01-26T02:51:12;-0.30;99.90
29295;DHT22;16305;48.566;8.846;2023-01-26T02:53:37;-0.50;99.90
29295;DHT22;16305;48.566;8.846;2023-01-26T02:56:03;-0.50;99.90
29295;DHT22;16305;48.566;8.846;2023-01-26T02:58:28;-0.50;99.90
29295;DHT22;16305;48.566;8.846;2023-01-26T03:00:54;-0.40;99.90
29295;DHT22;16305;48.566;8.846;2023-01-26T03:03:25;-0.30;99.90
29295;DHT22;16305;48.566;8.846;2023-01-26T03:06:09;-0.20;99.90
29295;DHT22;16305;48.566;8.846;2023-01-26T03:08:35;-0.30;99.90
29295;DHT22;16305;48.566;8.846;2023-01-26T03:11:00;-0.30;99.90
29295;DHT22;16305;48.566;8.846;2023-01-26T03:13:26;-0.20;99.90
29295;DHT22;16305;48.566;8.846;2023-01-26T03:15:51;-0.30;99.90
29295;DHT22;16305;48.566;8.846;2023-01-26T03:18:19;-0.30;99.90
29295;DHT22;16305;48.566;8.846;2023-01-26T03:21:15;-0.20;99.90
29295;DHT22;16305;48.566;8.846;2023-01-26T03:24:00;-0.30;99.90
29295;DHT22;16305;48.566;8.846;2023-01-26T03:26:44;-0.30;99.90
29295;DHT22;16305;48.566;8.846;2023-01-26T03:29:30;-0.10;99.90
29295;DHT22;16305;48.566;8.846;2023-01-26T03:31:55;0.00;99.90
29295;DHT22;16305;48.566;8.846;2023-01-26T03:34:23;0.00;99.90
29295;DHT22;16305;48.566;8.846;2023-01-26T03:36:49;-0.10;99.90
29295;DHT22;16305;48.566;8.846;2023-01-26T03:39:14;-0.10;99.90
29295;DHT22;16305;48.566;8.846;2023-01-26T03:41:59;-0.20;99.90
29295;DHT22;16305;48.566;8.846;2023-01-26T03:44:43;-0.20;99.90
29295;DHT22;16305;48.566;8.846;2023-01-26T03:47:28;-0.40;99.90
29295;DHT22;16305;48.566;8.846;2023-01-26T03:50:13;-0.50;99.90
29295;DHT22;16305;48.566;8.846;2023-01-26T03:52:57;-0.40;99.90
29295;DHT22;16305;48.566;8.846;2023-01-26T03:55:41;-0.40;99.90
29295;DHT22;16305;48.566;8.846;2023-01-26T03:58:25;-0.60;99.90
29295;DHT22;16305;48.566;8.846;2023-01-26T04:00:54;-0.60;99.90
29295;DHT22;16305;48.566;8.846;2023-01-26T04:03:19;-0.60;99.90
29295;DHT22;16305;48.566;8.846;2023-01-26T04:06:03;-0.60;99.90
29295;DHT22;16305;48.566;8.846;2023-01-26T04:08:47;-0.60;99.90
29295;DHT22;16305;48.566;8.846;2023-01-26T04:11:13;-0.70;99.90
29295;DHT22;16305;48.566;8.846;2023-01-26T04:13:38;-0.60;99.90
29295;DHT22;16305;48.566;8.846;2023-01-26T04:16:22;-0.80;99.90
29295;DHT22;16305;48.566;8.846;2023-01-26T04:19:06;-0.80;99.90
29295;DHT22;16305;48.566;8.846;2023-01-26T04:21:50;-0.80;99.90
29295;DHT22;16305;48.566;8.846;2023-01-26T04:24:16;-0.70;99.90
29295;DHT22;16305;48.566;8.846;2023-01-26T04:26:42;-0.70;99.90
29295;DHT22;16305;48.566;8.846;2023-01-26T04:29:12;-0.40;99.90
29295;DHT22;16305;48.566;8.846;2023-01-26T04:31:39;-0.20;99.90
29295;DHT22;16305;48.566;8.846;2023-01-26T04:34:06;-0.20;99.90
29295;DHT22;16305;48.566;8.846;2023-01-26T04:36:34;-0.20;99.90
29295;DHT22;16305;48.566;8.846;2023-01-26T04:39:00;-0.20;99.90
29295;DHT22;16305;48.566;8.846;2023-01-26T04:41:25;-0.20;99.90
29295;DHT22;16305;48.566;8.846;2023-01-26T04:43:52;-0.20;99.90
29295;DHT22;16305;48.566;8.846;2023-01-26T04:46:18;0.00;99.90
29295;DHT22;16305;48.566;8.846;2023-01-26T04:48:43;0.00;99.90
29295;DHT22;16305;48.566;8.846;2023-01-26T04:51:13;0.00;99.90
29295;DHT22;16305;48.566;8.846;2023-01-26T04:53:38;0.00;99.90
29295;DHT22;16305;48.566;8.846;2023-01-26T04:56:04;0.00;99.90
29295;DHT22;16305;48.566;8.846;2023-01-26T04:58:31;0.00;99.90
29295;DHT22;16305;48.566;8.846;2023-01-26T05:00:57;-0.10;99.90
29295;DHT22;16305;48.566;8.846;2023-01-26T05:03:24;0.00;99.90
29295;DHT22;16305;48.566;8.846;2023-01-26T05:05:53;0.00;99.90
29295;DHT22;16305;48.566;8.846;2023-01-26T05:08:20;0.10;99.90
29295;DHT22;16305;48.566;8.846;2023-01-26T05:10:46;0.00;99.90
29295;DHT22;16305;48.566;8.846;2023-01-26T05:13:12;-0.10;99.90
29295;DHT22;16305;48.566;8.846;2023-01-26T05:15:38;0.00;99.90
29295;DHT22;16305;48.566;8.846;2023-01-26T05:18:05;0.00;99.90
29295;DHT22;16305;48.566;8.846;2023-01-26T05:20:31;-0.10;99.90
29295;DHT22;16305;48.566;8.846;2023-01-26T05:22:57;-0.10;99.90
29295;DHT22;16305;48.566;8.846;2023-01-26T05:25:23;-0.20;99.90
29295;DHT22;16305;48.566;8.846;2023-01-26T05:27:49;-0.20;99.90
29295;DHT22;16305;48.566;8.846;2023-01-26T05:30:14;-0.40;99.90
29295;DHT22;16305;48.566;8.846;2023-01-26T05:32:40;-0.50;99.90
29295;DHT22;16305;48.566;8.846;2023-01-26T05:35:06;-0.50;99.90
29295;DHT22;16305;48.566;8.846;2023-01-26T05:37:33;-0.40;99.90
29295;DHT22;16305;48.566;8.846;2023-01-26T05:39:59;-0.40;99.90
29295;DHT22;16305;48.566;8.846;2023-01-26T05:42:25;-0.40;99.90
29295;DHT22;16305;48.566;8.846;2023-01-26T05:44:51;-0.50;99.90
29295;DHT22;16305;48.566;8.846;2023-01-26T05:47:17;-0.50;99.90
29295;DHT22;16305;48.566;8.846;2023-01-26T05:49:43;-0.50;99.90
29295;DHT22;16305;48.566;8.846;2023-01-26T05:52:12;-0.40;99.90
29295;DHT22;16305;48.566;8.846;2023-01-26T05:54:38;-0.40;99.90
29295;DHT22;16305;48.566;8.846;2023-01-26T05:57:03;-0.40;99.90
29295;DHT22;16305;48.566;8.846;2023-01-26T05:59:29;-0.50;99.90
29295;DHT22;16305;48.566;8.846;2023-01-26T06:01:55;-0.50;99.90
29295;DHT22;16305;48.566;8.846;2023-01-26T06:04:21;-0.50;99.90
29295;DHT22;16305;48.566;8.846;2023-01-26T06:06:46;-0.50;99.90
29295;DHT22;16305;48.566;8.846;2023-01-26T06:09:12;-0.50;99.90
29295;DHT22;16305;48.566;8.846;2023-01-26T06:11:38;-0.50;99.90
29295;DHT22;16305;48.566;8.846;2023-01-26T06:14:03;-0.60;99.90
29295;DHT22;16305;48.566;8.846;2023-01-26T06:16:29;-0.60;99.90
29295;DHT22;16305;48.566;8.846;2023-01-26T06:18:54;-0.60;99.90
29295;DHT22;16305;48.566;8.846;2023-01-26T06:21:20;-0.60;99.90
29295;DHT22;16305;48.566;8.846;2023-01-26T06:23:45;-0.60;99.90
29295;DHT22;16305;48.566;8.846;2023-01-26T06:26:11;-0.70;99.90
29295;DHT22;16305;48.566;8.846;2023-01-26T06:28:37;-0.80;99.90
29295;DHT22;16305;48.566;8.846;2023-01-26T06:31:04;-0.80;99.90
29295;DHT22;16305;48.566;8.846;2023-01-26T06:33:31;-0.80;99.90
29295;DHT22;16305;48.566;8.846;2023-01-26T06:36:03;-0.70;99.90
29295;DHT22;16305;48.566;8.846;2023-01-26T06:38:29;-0.70;99.90
29295;DHT22;16305;48.566;8.846;2023-01-26T06:41:02;-0.70;99.90
29295;DHT22;16305;48.566;8.846;2023-01-26T06:43:32;-0.60;99.90
29295;DHT22;16305;48.566;8.846;2023-01-26T06:45:58;-0.70;99.90
29295;DHT22;16305;48.566;8.846;2023-01-26T06:48:25;-0.70;99.90
29295;DHT22;16305;48.566;8.846;2023-01-26T06:50:51;-0.60;99.90
29295;DHT22;16305;48.566;8.846;2023-01-26T06:53:33;-0.60;99.90
29295;DHT22;16305;48.566;8.846;2023-01-26T06:55:58;-0.60;99.90
29295;DHT22;16305;48.566;8.846;2023-01-26T06:58:24;-0.60;99.90
29295;DHT22;16305;48.566;8.846;2023-01-26T07:00:50;-0.70;99.90
29295;DHT22;16305;48.566;8.846;2023-01-26T07:03:16;-0.70;99.90
29295;DHT22;16305;48.566;8.846;2023-01-26T07:05:42;-0.70;99.90
29295;DHT22;16305;48.566;8.846;2023-01-26T07:08:07;-0.70;99.90
29295;DHT22;16305;48.566;8.846;2023-01-26T07:10:36;-0.70;99.90
29295;DHT22;16305;48.566;8.846;2023-01-26T07:13:03;-0.70;99.90
29295;DHT22;16305;48.566;8.846;2023-01-26T07:15:29;-0.80;99.90
29295;DHT22;16305;48.566;8.846;2023-01-26T07:17:56;-0.70;99.90
29295;DHT22;16305;48.566;8.846;2023-01-26T07:20:21;-0.70;99.90
29295;DHT22;16305;48.566;8.846;2023-01-26T07:22:47;-0.70;99.90
29295;DHT22;16305;48.566;8.846;2023-01-26T07:25:12;-0.70;99.90
29295;DHT22;16305;48.566;8.846;2023-01-26T07:27:38;-0.70;99.90
29295;DHT22;16305;48.566;8.846;2023-01-26T07:30:04;-0.60;99.90
29295;DHT22;16305;48.566;8.846;2023-01-26T07:32:30;-0.60;99.90
29295;DHT22;16305;48.566;8.846;2023-01-26T07:34:56;-0.60;99.90
29295;DHT22;16305;48.566;8.846;2023-01-26T07:37:21;-0.60;99.90
29295;DHT22;16305;48.566;8.846;2023-01-26T07:39:47;-0.60;99.90
29295;DHT22;16305;48.566;8.846;2023-01-26T07:42:13;-0.50;99.90
29295;DHT22;16305;48.566;8.846;2023-01-26T07:44:38;-0.60;99.90
29295;DHT22;16305;48.566;8.846;2023-01-26T07:47:04;-0.60;99.90
29295;DHT22;16305;48.566;8.846;2023-01-26T07:49:30;-0.50;99.90
29295;DHT22;16305;48.566;8.846;2023-01-26T07:51:56;-0.60;99.90
29295;DHT22;16305;48.566;8.846;2023-01-26T07:54:22;-0.70;99.90
29295;DHT22;16305;48.566;8.846;2023-01-26T07:56:51;-0.70;99.90
29295;DHT22;16305;48.566;8.846;2023-01-26T07:59:17;-0.60;99.90
29295;DHT22;16305;48.566;8.846;2023-01-26T08:01:42;-0.50;99.90
29295;DHT22;16305;48.566;8.846;2023-01-26T08:04:08;-0.50;99.90
29295;DHT22;16305;48.566;8.846;2023-01-26T08:06:34;-0.40;99.90
29295;DHT22;16305;48.566;8.846;2023-01-26T08:08:59;-0.30;99.90
29295;DHT22;16305;48.566;8.846;2023-01-26T08:11:25;-0.30;99.90
29295;DHT22;16305;48.566;8.846;2023-01-26T08:13:51;-0.40;99.90
29295;DHT22;16305;48.566;8.846;2023-01-26T08:16:16;-0.40;99.90
29295;DHT22;16305;48.566;8.846;2023-01-26T08:18:44;-0.40;99.90
29295;DHT22;16305;48.566;8.846;2023-01-26T08:21:11;-0.40;99.90
29295;DHT22;16305;48.566;8.846;2023-01-26T08:23:37;-0.30;99.90
29295;DHT22;16305;48.566;8.846;2023-01-26T08:26:08;-0.40;99.90
29295;DHT22;16305;48.566;8.846;2023-01-26T08:28:35;-0.40;99.90
29295;DHT22;16305;48.566;8.846;2023-01-26T08:31:08;-0.40;99.90
29295;DHT22;16305;48.566;8.846;2023-01-26T08:33:35;-0.40;99.90
29295;DHT22;16305;48.566;8.846;2023-01-26T08:36:06;-0.50;99.90
29295;DHT22;16305;48.566;8.846;2023-01-26T08:38:33;-0.60;99.90
29295;DHT22;16305;48.566;8.846;2023-01-26T08:41:00;-0.60;99.90
29295;DHT22;16305;48.566;8.846;2023-01-26T08:43:26;-0.50;99.90
29295;DHT22;16305;48.566;8.846;2023-01-26T08:45:52;-0.60;99.90
29295;DHT22;16305;48.566;8.846;2023-01-26T08:48:17;-0.50;99.90
29295;DHT22;16305;48.566;8.846;2023-01-26T08:50:43;-0.60;99.90
29295;DHT22;16305;48.566;8.846;2023-01-26T08:53:09;-0.60;99.90
29295;DHT22;16305;48.566;8.846;2023-01-26T08:55:35;-0.60;99.90
29295;DHT22;16305;48.566;8.846;2023-01-26T08:58:01;-0.60;99.90
29295;DHT22;16305;48.566;8.846;2023-01-26T09:00:27;-0.50;99.90
29295;DHT22;16305;48.566;8.846;2023-01-26T09:03:03;-0.60;99.90
29295;DHT22;16305;48.566;8.846;2023-01-26T09:05:37;-0.60;99.90
29295;DHT22;16305;48.566;8.846;2023-01-26T09:08:03;-0.60;99.90
29295;DHT22;16305;48.566;8.846;2023-01-26T09:10:29;-0.60;99.90
29295;DHT22;16305;48.566;8.846;2023-01-26T09:12:56;-0.60;99.90
29295;DHT22;16305;48.566;8.846;2023-01-26T09:15:22;-0.60;99.90
29295;DHT22;16305;48.566;8.846;2023-01-26T09:17:48;-0.60;99.90
29295;DHT22;16305;48.566;8.846;2023-01-26T09:20:14;-0.60;99.90
29295;DHT22;16305;48.566;8.846;2023-01-26T09:22:40;-0.50;99.90
29295;DHT22;16305;48.566;8.846;2023-01-26T09:25:06;-0.60;99.90
29295;DHT22;16305;48.566;8.846;2023-01-26T09:27:31;-0.60;99.90
29295;DHT22;16305;48.566;8.846;2023-01-26T09:29:57;-0.60;99.90
29295;DHT22;16305;48.566;8.846;2023-01-26T09:32:22;-0.70;99.90
29295;DHT22;16305;48.566;8.846;2023-01-26T09:34:48;-0.70;99.90
29295;DHT22;16305;48.566;8.846;2023-01-26T09:37:14;-0.60;99.90
29295;DHT22;16305;48.566;8.846;2023-01-26T09:39:39;-0.70;99.90
29295;DHT22;16305;48.566;8.846;2023-01-26T09:47:46;-0.60;99.90
29295;DHT22;16305;48.566;8.846;2023-01-26T09:50:18;-0.60;99.90
29295;DHT22;16305;48.566;8.846;2023-01-26T09:55:32;-0.50;99.90
29295;DHT22;16305;48.566;8.846;2023-01-26T09:58:02;-0.50;99.90
29295;DHT22;16305;48.566;8.846;2023-01-26T10:00:38;-0.60;99.90
29295;DHT22;16305;48.566;8.846;2023-01-26T10:03:11;-0.60;99.90
29295;DHT22;16305;48.566;8.846;2023-01-26T10:08:19;-0.60;99.90
29295;DHT22;16305;48.566;8.846;2023-01-26T10:13:37;-0.60;99.90
29295;DHT22;16305;48.566;8.846;2023-01-26T10:16:07;-0.60;99.90
29295;DHT22;16305;48.566;8.846;2023-01-26T10:18:58;-0.70;99.90
29295;DHT22;16305;48.566;8.846;2023-01-26T10:21:34;-0.70;99.90
29295;DHT22;16305;48.566;8.846;2023-01-26T10:24:01;-0.70;99.90
29295;DHT22;16305;48.566;8.846;2023-01-26T10:26:30;-0.60;99.90
29295;DHT22;16305;48.566;8.846;2023-01-26T10:28:56;-0.70;99.90
29295;DHT22;16305;48.566;8.846;2023-01-26T10:31:26;-0.80;99.90
29295;DHT22;16305;48.566;8.846;2023-01-26T10:33:59;-0.80;99.90
29295;DHT22;16305;48.566;8.846;2023-01-26T10:38:52;-0.90;99.90
29295;DHT22;16305;48.566;8.846;2023-01-26T10:41:26;-1.00;99.90
29295;DHT22;16305;48.566;8.846;2023-01-26T10:43:57;-1.10;99.90
29295;DHT22;16305;48.566;8.846;2023-01-26T10:46:28;-1.10;99.90
29295;DHT22;16305;48.566;8.846;2023-01-26T10:48:56;-1.10;99.90
29295;DHT22;16305;48.566;8.846;2023-01-26T10:51:30;-1.10;99.90
29295;DHT22;16305;48.566;8.846;2023-01-26T10:54:13;-1.10;99.90
29295;DHT22;16305;48.566;8.846;2023-01-26T10:56:54;-1.10;99.90
29295;DHT22;16305;48.566;8.846;2023-01-26T10:59:37;-1.10;99.90
29295;DHT22;16305;48.566;8.846;2023-01-26T11:04:36;-1.20;99.90
29295;DHT22;16305;48.566;8.846;2023-01-26T11:07:24;-1.20;99.90
29295;DHT22;16305;48.566;8.846;2023-01-26T11:09:51;-1.20;99.90
29295;DHT22;16305;48.566;8.846;2023-01-26T11:12:18;-1.10;99.90
29295;DHT22;16305;48.566;8.846;2023-01-26T11:14:59;-1.20;99.90
29295;DHT22;16305;48.566;8.846;2023-01-26T11:17:31;-1.20;99.90
29295;DHT22;16305;48.566;8.846;2023-01-26T11:22:47;-1.30;99.90
29295;DHT22;16305;48.566;8.846;2023-01-26T11:28:46;-1.20;99.90
29295;DHT22;16305;48.566;8.846;2023-01-26T11:37:38;-1.10;99.90
29295;DHT22;16305;48.566;8.846;2023-01-26T11:40:29;-1.00;99.90
29295;DHT22;16305;48.566;8.846;2023-01-26T11:43:19;-0.90;99.90
29295;DHT22;16305;48.566;8.846;2023-01-26T11:49:07;-1.00;99.90
29295;DHT22;16305;48.566;8.846;2023-01-26T12:02:31;-1.00;99.90
29295;DHT22;16305;48.566;8.846;2023-01-26T12:05:02;-0.90;99.90
29295;DHT22;16305;48.566;8.846;2023-01-26T12:07:35;-0.80;99.90
29295;DHT22;16305;48.566;8.846;2023-01-26T12:10:16;-0.80;99.90
29295;DHT22;16305;48.566;8.846;2023-01-26T12:12:48;-0.80;99.90
29295;DHT22;16305;48.566;8.846;2023-01-26T12:15:21;-0.80;99.90
29295;DHT22;16305;48.566;8.846;2023-01-26T12:18:31;-0.80;99.90
29295;DHT22;16305;48.566;8.846;2023-01-26T12:21:17;-0.80;99.90
29295;DHT22;16305;48.566;8.846;2023-01-26T12:23:57;-0.80;99.90
29295;DHT22;16305;48.566;8.846;2023-01-26T12:26:25;-0.90;99.90
29295;DHT22;16305;48.566;8.846;2023-01-26T12:29:14;-0.90;99.90
29295;DHT22;16305;48.566;8.846;2023-01-26T12:32:13;-0.80;99.90
29295;DHT22;16305;48.566;8.846;2023-01-26T12:34:38;-0.90;99.90
29295;DHT22;16305;48.566;8.846;2023-01-26T12:40:21;-1.00;99.90
29295;DHT22;16305;48.566;8.846;2023-01-26T12:45:22;-1.20;99.90
29295;DHT22;16305;48.566;8.846;2023-01-26T12:47:53;-1.30;99.90
29295;DHT22;16305;48.566;8.846;2023-01-26T12:53:04;-1.40;99.90
29295;DHT22;16305;48.566;8.846;2023-01-26T12:55:55;-1.30;99.90
29295;DHT22;16305;48.566;8.846;2023-01-26T12:58:29;-1.40;99.90
29295;DHT22;16305;48.566;8.846;2023-01-26T13:01:08;-1.40;99.90
29295;DHT22;16305;48.566;8.846;2023-01-26T13:03:38;-1.30;99.90
29295;DHT22;16305;48.566;8.846;2023-01-26T13:11:09;-1.40;99.90
29295;DHT22;16305;48.566;8.846;2023-01-26T13:13:55;-1.40;99.90
29295;DHT22;16305;48.566;8.846;2023-01-26T13:18:51;-1.40;99.90
29295;DHT22;16305;48.566;8.846;2023-01-26T13:26:57;-1.30;99.90
29295;DHT22;16305;48.566;8.846;2023-01-26T13:31:53;-1.40;99.90
29295;DHT22;16305;48.566;8.846;2023-01-26T13:34:32;-1.40;99.90
29295;DHT22;16305;48.566;8.846;2023-01-26T13:37:08;-1.40;99.90
29295;DHT22;16305;48.566;8.846;2023-01-26T13:39:37;-1.30;99.90
29295;DHT22;16305;48.566;8.846;2023-01-26T13:42:23;-1.30;99.90
29295;DHT22;16305;48.566;8.846;2023-01-26T13:45:17;-1.20;99.90
29295;DHT22;16305;48.566;8.846;2023-01-26T13:47:45;-1.20;99.90
29295;DHT22;16305;48.566;8.846;2023-01-26T13:52:48;-1.00;99.90
29295;DHT22;16305;48.566;8.846;2023-01-26T13:55:32;-0.90;99.90
29295;DHT22;16305;48.566;8.846;2023-01-26T13:58:14;-0.80;99.90
29295;DHT22;16305;48.566;8.846;2023-01-26T14:00:39;-0.90;99.90
29295;DHT22;16305;48.566;8.846;2023-01-26T14:03:19;-1.00;99.90
29295;DHT22;16305;48.566;8.846;2023-01-26T14:05:51;-1.10;99.90
29295;DHT22;16305;48.566;8.846;2023-01-26T14:08:19;-1.30;99.90
29295;DHT22;16305;48.566;8.846;2023-01-26T14:10:46;-1.40;99.90
29295;DHT22;16305;48.566;8.846;2023-01-26T14:13:27;-1.40;99.90
29295;DHT22;16305;48.566;8.846;2023-01-26T14:15:55;-1.30;99.90
29295;DHT22;16305;48.566;8.846;2023-01-26T14:18:21;-1.40;99.90
29295;DHT22;16305;48.566;8.846;2023-01-26T14:20:47;-1.30;99.90
29295;DHT22;16305;48.566;8.846;2023-01-26T14:23:14;-1.30;99.90
29295;DHT22;16305;48.566;8.846;2023-01-26T14:26:03;-1.30;99.90
29295;DHT22;16305;48.566;8.846;2023-01-26T14:28:41;-1.40;99.90
29295;DHT22;16305;48.566;8.846;2023-01-26T14:31:17;-1.40;99.90
29295;DHT22;16305;48.566;8.846;2023-01-26T14:33:44;-1.30;99.90
29295;DHT22;16305;48.566;8.846;2023-01-26T14:36:15;-1.40;99.90
29295;DHT22;16305;48.566;8.846;2023-01-26T14:38:43;-1.50;99.90
29295;DHT22;16305;48.566;8.846;2023-01-26T14:41:38;-1.40;99.90
29295;DHT22;16305;48.566;8.846;2023-01-26T14:44:03;-1.40;99.90
29295;DHT22;16305;48.566;8.846;2023-01-26T14:46:43;-1.40;99.90
29295;DHT22;16305;48.566;8.846;2023-01-26T14:49:15;-1.40;99.90
29295;DHT22;16305;48.566;8.846;2023-01-26T14:51:45;-1.20;99.90
29295;DHT22;16305;48.566;8.846;2023-01-26T14:54:31;-1.30;99.90
29295;DHT22;16305;48.566;8.846;2023-01-26T14:56:58;-1.30;99.90
29295;DHT22;16305;48.566;8.846;2023-01-26T14:59:34;-1.30;99.90
29295;DHT22;16305;48.566;8.846;2023-01-26T15:02:17;-1.30;99.90
29295;DHT22;16305;48.566;8.846;2023-01-26T15:05:02;-1.40;99.90
29295;DHT22;16305;48.566;8.846;2023-01-26T15:07:32;-1.40;99.90
29295;DHT22;16305;48.566;8.846;2023-01-26T15:09:58;-1.40;99.90
29295;DHT22;16305;48.566;8.846;2023-01-26T15:12:24;-1.40;99.90
29295;DHT22;16305;48.566;8.846;2023-01-26T15:14:59;-1.30;99.90
29295;DHT22;16305;48.566;8.846;2023-01-26T15:17:26;-1.30;99.90
29295;DHT22;16305;48.566;8.846;2023-01-26T15:19:52;-1.30;99.90
29295;DHT22;16305;48.566;8.846;2023-01-26T15:22:19;-1.40;99.90
29295;DHT22;16305;48.566;8.846;2023-01-26T15:25:18;-1.30;99.90
29295;DHT22;16305;48.566;8.846;2023-01-26T15:27:52;-1.40;99.90
29295;DHT22;16305;48.566;8.846;2023-01-26T15:30:28;-1.50;99.90
29295;DHT22;16305;48.566;8.846;2023-01-26T15:32:54;-1.50;99.90
29295;DHT22;16305;48.566;8.846;2023-01-26T15:35:26;-1.40;99.90
29295;DHT22;16305;48.566;8.846;2023-01-26T15:38:10;-1.40;99.90
29295;DHT22;16305;48.566;8.846;2023-01-26T15:40:36;-1.30;99.90
29295;DHT22;16305;48.566;8.846;2023-01-26T15:45:40;-1.40;99.90
29295;DHT22;16305;48.566;8.846;2023-01-26T15:48:08;-1.40;99.90
29295;DHT22;16305;48.566;8.846;2023-01-26T15:50:34;-1.40;99.90
29295;DHT22;16305;48.566;8.846;2023-01-26T15:53:00;-1.50;99.90
29295;DHT22;16305;48.566;8.846;2023-01-26T15:55:27;-1.50;99.90
29295;DHT22;16305;48.566;8.846;2023-01-26T15:57:55;-1.50;99.90
29295;DHT22;16305;48.566;8.846;2023-01-26T16:00:20;-1.40;99.90
29295;DHT22;16305;48.566;8.846;2023-01-26T16:02:46;-1.40;99.90
29295;DHT22;16305;48.566;8.846;2023-01-26T16:05:17;-1.40;99.90
29295;DHT22;16305;48.566;8.846;2023-01-26T16:07:42;-1.50;99.90
29295;DHT22;16305;48.566;8.846;2023-01-26T16:10:08;-1.40;99.90
29295;DHT22;16305;48.566;8.846;2023-01-26T16:12:34;-1.30;99.90
29295;DHT22;16305;48.566;8.846;2023-01-26T16:15:00;-1.40;99.90
29295;DHT22;16305;48.566;8.846;2023-01-26T16:17:26;-1.40;99.90
29295;DHT22;16305;48.566;8.846;2023-01-26T16:19:51;-1.50;99.90
29295;DHT22;16305;48.566;8.846;2023-01-26T16:22:17;-1.50;99.90
29295;DHT22;16305;48.566;8.846;2023-01-26T16:24:42;-1.50;99.90
29295;DHT22;16305;48.566;8.846;2023-01-26T16:27:08;-1.40;99.90
29295;DHT22;16305;48.566;8.846;2023-01-26T16:29:34;-1.50;99.90
29295;DHT22;16305;48.566;8.846;2023-01-26T16:32:00;-1.50;99.90
29295;DHT22;16305;48.566;8.846;2023-01-26T16:34:27;-1.50;99.90
29295;DHT22;16305;48.566;8.846;2023-01-26T16:36:53;-1.40;99.90
29295;DHT22;16305;48.566;8.846;2023-01-26T16:39:20;-1.40;99.90
29295;DHT22;16305;48.566;8.846;2023-01-26T16:41:45;-1.50;99.90
29295;DHT22;16305;48.566;8.846;2023-01-26T16:44:13;-1.50;99.90
29295;DHT22;16305;48.566;8.846;2023-01-26T16:46:39;-1.50;99.90
29295;DHT22;16305;48.566;8.846;2023-01-26T16:49:04;-1.50;99.90
29295;DHT22;16305;48.566;8.846;2023-01-26T16:51:36;-1.50;99.90
29295;DHT22;16305;48.566;8.846;2023-01-26T16:54:03;-1.60;99.90
29295;DHT22;16305;48.566;8.846;2023-01-26T16:56:29;-1.50;99.90
29295;DHT22;16305;48.566;8.846;2023-01-26T16:58:56;-1.50;99.90
29295;DHT22;16305;48.566;8.846;2023-01-26T17:01:24;-1.40;99.90
29295;DHT22;16305;48.566;8.846;2023-01-26T17:03:52;-1.50;99.90
29295;DHT22;16305;48.566;8.846;2023-01-26T17:06:19;-1.50;99.90
29295;DHT22;16305;48.566;8.846;2023-01-26T17:08:45;-1.50;99.90
29295;DHT22;16305;48.566;8.846;2023-01-26T17:11:25;-1.40;99.90